Time;durP1;ratioP1;P1;durP2;ratioP2;P2;SDS_P1;SDS_P2;PMS_P1;PMS_P2;Temp;Humidity;BMP_temperature;BMP_pressure;BME280_temperature;BME280_humidity;BME280_pressure;Samples;Min_cycle;Max_cycle;Signal;HPM_P1;HPM_P2
2020/12/01 07:19:15;;;;;;;151.75;39.65;;;;;;;;;;5087141;28;20381;-68
2020/12/01 07:21:45;;;;;;;134.68;35.72;;;;;;;;;;5087004;28;20024;-66
2020/12/01 07:24:11;;;;;;;82.80;29.50;;;;;;;;;;5088205;28;20427;-67
2020/12/01 07:26:46;;;;;;;117.25;33.22;;;;;;;;;;5077108;28;20032;-69
2020/12/01 07:29:21;;;;;;;132.27;36.08;;;;;;;;;;5068206;28;20025;-67
2020/12/01 07:31:50;;;;;;;93.15;33.95;;;;;;;;;;5068980;28;20497;-69
2020/12/01 07:34:18;;;;;;;132.30;33.63;;;;;;;;;;5077897;28;20020;-69
2020/12/01 07:36:48;;;;;;;108.47;36.05;;;;;;;;;;5087570;28;20058;-69
2020/12/01 07:39:14;;;;;;;136.48;32.90;;;;;;;;;;5087444;28;20036;-68
2020/12/01 07:41:50;;;;;;;102.68;31.27;;;;;;;;;;5088690;28;20020;-71
2020/12/01 07:44:18;;;;;;;92.30;30.83;;;;;;;;;;5068191;28;20027;-67
2020/12/01 07:49:11;;;;;;;85.97;28.92;;;;;;;;;;5068765;28;20055;-68
2020/12/01 07:51:37;;;;;;;80.97;29.00;;;;;;;;;;5068408;28;20059;-68
2020/12/01 07:54:04;;;;;;;122.80;32.88;;;;;;;;;;5068123;28;20017;-69
2020/12/01 07:56:30;;;;;;;103.55;32.80;;;;;;;;;;5068113;28;20025;-68
2020/12/01 07:59:06;;;;;;;98.53;33.03;;;;;;;;;;5068082;28;20025;-68
2020/12/01 08:01:32;;;;;;;98.10;33.78;;;;;;;;;;5067122;28;20151;-69
2020/12/01 08:04:08;;;;;;;86.78;29.90;;;;;;;;;;5067770;28;20017;-67
2020/12/01 08:06:33;;;;;;;86.38;30.52;;;;;;;;;;5057414;28;20012;-68
2020/12/01 08:08:59;;;;;;;79.53;31.10;;;;;;;;;;5083446;28;20488;-67
2020/12/01 08:11:25;;;;;;;84.45;30.90;;;;;;;;;;5072415;28;20422;-68
2020/12/01 08:13:53;;;;;;;85.63;30.55;;;;;;;;;;5067932;28;20074;-66
2020/12/01 08:16:20;;;;;;;84.80;31.67;;;;;;;;;;5068442;28;20701;-63
2020/12/01 08:18:46;;;;;;;94.70;32.80;;;;;;;;;;5065884;28;20060;-63
2020/12/01 08:21:14;;;;;;;83.18;28.45;;;;;;;;;;5087911;28;20038;-62
2020/12/01 08:23:41;;;;;;;97.75;32.72;;;;;;;;;;5088197;28;20004;-62
2020/12/01 08:26:10;;;;;;;99.38;33.33;;;;;;;;;;5071651;28;20074;-63
2020/12/01 08:28:42;;;;;;;92.80;29.33;;;;;;;;;;5063923;28;20017;-63
2020/12/01 08:31:17;;;;;;;78.40;27.52;;;;;;;;;;5053817;28;20415;-67
2020/12/01 08:33:57;;;;;;;61.42;25.40;;;;;;;;;;5058658;28;20012;-66
2020/12/01 08:36:35;;;;;;;97.13;28.00;;;;;;;;;;5073575;28;20028;-66
2020/12/01 08:39:10;;;;;;;69.20;28.02;;;;;;;;;;5063019;28;20033;-65
2020/12/01 08:41:41;;;;;;;106.63;27.15;;;;;;;;;;5055631;28;20021;-65
2020/12/01 08:44:13;;;;;;;67.47;24.83;;;;;;;;;;5051217;28;20031;-62
2020/12/01 08:46:41;;;;;;;67.72;26.48;;;;;;;;;;5053046;28;20025;-62
2020/12/01 08:49:23;;;;;;;109.38;30.80;;;;;;;;;;5053585;28;20092;-62
2020/12/01 08:51:55;;;;;;;103.28;33.22;;;;;;;;;;5053135;28;20020;-62
2020/12/01 08:54:26;;;;;;;93.72;29.80;;;;;;;;;;5054040;28;20013;-64
2020/12/01 08:57:01;;;;;;;109.45;30.35;;;;;;;;;;5053427;28;20545;-62
2020/12/01 08:59:29;;;;;;;88.35;29.80;;;;;;;;;;5054486;28;20024;-62
2020/12/01 09:01:59;;;;;;;91.18;29.30;;;;;;;;;;5053898;28;20025;-64
2020/12/01 09:04:26;;;;;;;91.25;30.15;;;;;;;;;;5053419;28;20378;-64
2020/12/01 09:06:53;;;;;;;102.85;31.00;;;;;;;;;;5052657;28;20021;-63
2020/12/01 09:09:24;;;;;;;101.30;32.65;;;;;;;;;;5052680;28;20079;-63
2020/12/01 09:17:25;;;;;;;88.43;29.30;;;;;;;;;;5053222;28;20075;-63
2020/12/01 09:22:27;;;;;;;93.88;31.98;;;;;;;;;;5053405;28;20024;-62
2020/12/01 09:25:04;;;;;;;105.07;31.52;;;;;;;;;;5052362;28;20037;-62
2020/12/01 09:27:32;;;;;;;120.15;33.92;;;;;;;;;;5051494;28;20028;-63
2020/12/01 09:29:57;;;;;;;101.40;32.38;;;;;;;;;;5052284;28;20412;-62
2020/12/01 09:32:23;;;;;;;104.25;32.40;;;;;;;;;;5053429;28;20062;-63
2020/12/01 09:34:49;;;;;;;99.03;30.95;;;;;;;;;;5066184;28;20020;-63
2020/12/01 09:37:15;;;;;;;93.35;32.92;;;;;;;;;;5071906;28;20027;-62
2020/12/01 09:39:41;;;;;;;114.28;39.15;;;;;;;;;;5073059;28;20020;-63
2020/12/01 09:47:11;;;;;;;115.88;38.25;;;;;;;;;;5071860;28;20020;-67
2020/12/01 09:49:37;;;;;;;104.50;34.78;;;;;;;;;;5072545;28;20036;-65
2020/12/01 09:52:09;;;;;;;104.03;33.83;;;;;;;;;;5072556;28;20111;-66
2020/12/01 09:57:09;;;;;;;102.50;35.67;;;;;;;;;;5072251;28;20028;-68
2020/12/01 09:59:46;;;;;;;89.68;33.25;;;;;;;;;;5072510;28;20518;-64
2020/12/01 10:05:04;;;;;;;89.00;33.05;;;;;;;;;;5072464;28;20021;-65
2020/12/01 10:12:43;;;;;;;101.85;34.30;;;;;;;;;;5072413;28;20400;-64
2020/12/01 10:17:51;;;;;;;83.75;33.42;;;;;;;;;;5071599;28;20041;-64
2020/12/01 10:25:49;;;;;;;86.40;30.83;;;;;;;;;;5071923;28;20028;-66
2020/12/01 10:36:00;;;;;;;74.68;31.95;;;;;;;;;;5071947;28;20039;-63
2020/12/01 10:38:25;;;;;;;65.32;27.85;;;;;;;;;;5070775;28;20025;-63
2020/12/01 10:40:51;;;;;;;75.75;29.50;;;;;;;;;;5071371;28;20024;-65
2020/12/01 10:43:16;;;;;;;74.88;30.02;;;;;;;;;;5070609;28;20020;-66
2020/12/01 10:45:42;;;;;;;61.42;26.70;;;;;;;;;;5071263;28;20021;-65
2020/12/01 10:48:07;;;;;;;78.88;31.40;;;;;;;;;;5071354;28;20496;-64
2020/12/01 10:50:33;;;;;;;63.63;28.48;;;;;;;;;;5071831;28;20074;-66
2020/12/01 10:52:59;;;;;;;76.93;30.52;;;;;;;;;;5070353;28;20029;-65
2020/12/01 10:55:27;;;;;;;74.78;30.10;;;;;;;;;;5070622;28;20031;-64
2020/12/01 10:57:52;;;;;;;73.35;29.70;;;;;;;;;;5071833;28;20037;-65
2020/12/01 11:00:19;;;;;;;67.07;29.70;;;;;;;;;;5071651;28;20429;-65
2020/12/01 11:02:45;;;;;;;73.07;29.70;;;;;;;;;;5071588;28;20020;-65
2020/12/01 11:05:12;;;;;;;80.15;34.60;;;;;;;;;;5071581;28;20088;-64
2020/12/01 11:07:37;;;;;;;82.45;33.40;;;;;;;;;;5070879;28;20424;-65
2020/12/01 11:10:05;;;;;;;78.95;33.17;;;;;;;;;;5071095;28;20025;-66
2020/12/01 11:12:32;;;;;;;78.97;32.15;;;;;;;;;;5070250;28;20501;-65
2020/12/01 11:14:57;;;;;;;68.55;29.27;;;;;;;;;;5052929;28;20047;-65
2020/12/01 11:17:22;;;;;;;71.45;30.88;;;;;;;;;;5069493;28;20049;-66
2020/12/01 11:19:48;;;;;;;71.70;29.42;;;;;;;;;;5071398;28;20029;-66
2020/12/01 11:22:14;;;;;;;69.22;29.50;;;;;;;;;;5071500;28;20016;-65
2020/12/01 11:24:40;;;;;;;73.80;30.48;;;;;;;;;;5069734;28;20393;-65
2020/12/01 11:27:06;;;;;;;77.38;29.60;;;;;;;;;;5064907;28;20025;-66
2020/12/01 11:29:31;;;;;;;78.50;34.08;;;;;;;;;;5062826;28;20040;-66
2020/12/01 11:31:57;;;;;;;79.05;31.17;;;;;;;;;;5064825;28;20047;-66
2020/12/01 11:34:22;;;;;;;84.65;32.72;;;;;;;;;;5059877;28;20017;-65
2020/12/01 11:36:48;;;;;;;86.57;34.03;;;;;;;;;;5051112;28;20024;-66
2020/12/01 11:39:14;;;;;;;82.20;31.25;;;;;;;;;;5050731;28;20033;-66
2020/12/01 11:41:39;;;;;;;77.97;31.52;;;;;;;;;;5051367;28;20017;-66
2020/12/01 11:44:05;;;;;;;80.78;32.03;;;;;;;;;;5049681;28;20150;-66
2020/12/01 11:46:30;;;;;;;81.00;35.17;;;;;;;;;;5049763;28;20366;-66
2020/12/01 11:49:01;;;;;;;75.93;30.55;;;;;;;;;;5049937;28;20053;-65
2020/12/01 11:51:28;;;;;;;70.57;28.88;;;;;;;;;;5051635;28;20151;-65
2020/12/01 11:53:53;;;;;;;68.35;29.92;;;;;;;;;;5050660;28;20031;-61
2020/12/01 11:56:19;;;;;;;70.47;30.92;;;;;;;;;;5050841;28;20104;-61
2020/12/01 11:58:44;;;;;;;66.65;28.20;;;;;;;;;;5050864;28;20112;-62
2020/12/01 12:01:10;;;;;;;81.63;36.10;;;;;;;;;;5050453;28;20381;-62
2020/12/01 12:03:35;;;;;;;74.10;32.13;;;;;;;;;;5050810;28;20057;-61
2020/12/01 12:06:02;;;;;;;74.40;31.17;;;;;;;;;;5054831;28;20032;-61
2020/12/01 12:08:27;;;;;;;68.97;30.60;;;;;;;;;;5054370;28;20048;-61
2020/12/01 12:10:53;;;;;;;71.43;30.42;;;;;;;;;;5054758;28;20060;-61
2020/12/01 12:13:18;;;;;;;70.93;30.30;;;;;;;;;;5053628;28;20384;-61
2020/12/01 12:15:44;;;;;;;83.63;39.97;;;;;;;;;;5054059;28;20489;-60
2020/12/01 12:18:09;;;;;;;80.63;35.22;;;;;;;;;;5053348;28;20053;-63
2020/12/01 12:20:35;;;;;;;99.03;41.70;;;;;;;;;;5053362;28;20531;-63
2020/12/01 12:23:00;;;;;;;75.47;32.88;;;;;;;;;;5053942;28;20055;-62
2020/12/01 12:25:26;;;;;;;76.63;31.45;;;;;;;;;;5053430;28;20033;-62
2020/12/01 12:27:52;;;;;;;64.00;28.20;;;;;;;;;;5053205;28;20051;-62
2020/12/01 12:30:17;;;;;;;68.38;26.67;;;;;;;;;;5054296;28;20377;-61
2020/12/01 12:32:43;;;;;;;70.53;27.85;;;;;;;;;;5054231;28;20025;-62
2020/12/01 12:35:08;;;;;;;65.45;28.05;;;;;;;;;;5069334;28;20020;-63
2020/12/01 12:37:34;;;;;;;62.55;26.83;;;;;;;;;;5073120;28;20033;-62
2020/12/01 12:40:00;;;;;;;60.75;26.55;;;;;;;;;;5074010;28;20493;-63
2020/12/01 12:42:26;;;;;;;62.15;25.67;;;;;;;;;;5074219;28;20012;-61
2020/12/01 12:44:52;;;;;;;63.67;27.63;;;;;;;;;;5073624;28;20024;-62
2020/12/01 12:47:17;;;;;;;63.83;28.58;;;;;;;;;;5072456;28;20023;-62
2020/12/01 12:49:43;;;;;;;67.80;28.98;;;;;;;;;;5073142;28;20033;-61
2020/12/01 12:52:09;;;;;;;66.00;28.67;;;;;;;;;;5074414;28;20021;-61
2020/12/01 12:54:35;;;;;;;69.47;29.27;;;;;;;;;;5072313;28;20358;-62
2020/12/01 12:57:01;;;;;;;64.97;28.40;;;;;;;;;;5073979;28;20027;-61
2020/12/01 12:59:28;;;;;;;65.38;28.95;;;;;;;;;;5073918;28;20029;-61
2020/12/01 13:01:54;;;;;;;68.15;30.33;;;;;;;;;;5073458;28;20358;-61
2020/12/01 13:04:19;;;;;;;75.95;31.95;;;;;;;;;;5073913;28;20440;-62
2020/12/01 13:06:45;;;;;;;75.22;32.10;;;;;;;;;;5074078;28;20107;-63
2020/12/01 13:09:10;;;;;;;78.13;33.88;;;;;;;;;;5072042;28;20028;-63
2020/12/01 13:11:36;;;;;;;78.68;32.17;;;;;;;;;;5073621;28;20090;-62
2020/12/01 13:14:01;;;;;;;79.55;34.08;;;;;;;;;;5072955;28;20016;-63
2020/12/01 13:16:27;;;;;;;85.47;34.08;;;;;;;;;;5072908;28;20074;-63
2020/12/01 13:18:52;;;;;;;79.60;34.13;;;;;;;;;;5072818;28;20056;-64
2020/12/01 13:21:18;;;;;;;134.32;56.90;;;;;;;;;;5073124;28;20131;-62
2020/12/01 13:23:43;;;;;;;96.65;43.38;;;;;;;;;;5071745;28;20059;-63
2020/12/01 13:26:09;;;;;;;67.30;29.20;;;;;;;;;;5072001;28;20008;-63
2020/12/01 13:28:34;;;;;;;102.45;45.10;;;;;;;;;;5073178;28;20024;-63
2020/12/01 13:31:00;;;;;;;86.15;33.13;;;;;;;;;;5072781;28;20025;-63
2020/12/01 13:33:26;;;;;;;69.93;29.92;;;;;;;;;;5072164;28;20358;-63
2020/12/01 13:35:52;;;;;;;67.47;28.20;;;;;;;;;;5072876;28;20461;-62
2020/12/01 13:38:17;;;;;;;65.15;28.45;;;;;;;;;;5072712;28;20109;-63
2020/12/01 13:40:44;;;;;;;65.65;27.05;;;;;;;;;;5072958;28;20052;-64
2020/12/01 13:43:09;;;;;;;60.22;26.38;;;;;;;;;;5067731;28;20021;-64
2020/12/01 13:45:34;;;;;;;58.42;24.75;;;;;;;;;;5060275;28;20381;-65
2020/12/01 13:48:00;;;;;;;60.28;24.70;;;;;;;;;;5061972;28;20025;-63
2020/12/01 13:50:27;;;;;;;57.65;23.58;;;;;;;;;;5061343;28;20373;-65
2020/12/01 13:52:52;;;;;;;57.33;24.35;;;;;;;;;;5071606;28;20074;-64
2020/12/01 13:55:18;;;;;;;55.33;24.65;;;;;;;;;;5071912;28;20419;-64
2020/12/01 13:57:45;;;;;;;63.33;25.00;;;;;;;;;;5071665;28;20017;-64
2020/12/01 14:00:16;;;;;;;73.47;30.10;;;;;;;;;;5054569;28;20020;-66
2020/12/01 14:02:42;;;;;;;92.00;38.28;;;;;;;;;;5071757;28;20463;-65
2020/12/01 14:05:07;;;;;;;66.00;26.75;;;;;;;;;;5072636;28;20020;-64
2020/12/01 14:07:33;;;;;;;71.60;30.88;;;;;;;;;;5072221;28;20078;-64
2020/12/01 14:09:59;;;;;;;68.88;28.23;;;;;;;;;;5072613;28;20037;-64
2020/12/01 14:12:24;;;;;;;67.55;28.70;;;;;;;;;;5068707;28;20074;-64
2020/12/01 14:14:50;;;;;;;72.72;29.75;;;;;;;;;;5071409;28;20540;-64
2020/12/01 14:17:15;;;;;;;67.60;29.10;;;;;;;;;;5067152;28;20020;-63
2020/12/01 14:19:41;;;;;;;75.32;30.25;;;;;;;;;;5072190;28;20115;-65
2020/12/01 14:22:07;;;;;;;76.57;30.67;;;;;;;;;;5068443;28;20055;-65
2020/12/01 14:24:32;;;;;;;61.00;25.75;;;;;;;;;;5052208;28;20107;-64
2020/12/01 14:27:02;;;;;;;67.05;26.02;;;;;;;;;;5053092;28;20159;-65
2020/12/01 14:29:28;;;;;;;60.75;24.63;;;;;;;;;;5056738;28;20029;-66
2020/12/01 14:31:53;;;;;;;62.03;25.75;;;;;;;;;;5061825;28;20667;-65
2020/12/01 14:34:19;;;;;;;62.35;24.70;;;;;;;;;;5064517;28;20397;-66
2020/12/01 14:36:46;;;;;;;61.55;25.67;;;;;;;;;;5070322;28;20016;-66
2020/12/01 14:39:13;;;;;;;63.70;25.48;;;;;;;;;;5055993;28;20043;-68
2020/12/01 14:41:39;;;;;;;62.97;25.58;;;;;;;;;;5049424;28;20017;-67
2020/12/01 14:44:11;;;;;;;60.15;25.17;;;;;;;;;;5057881;28;20064;-65
2020/12/01 14:46:46;;;;;;;58.80;24.92;;;;;;;;;;5063698;28;20546;-66
2020/12/01 14:49:15;;;;;;;64.55;26.80;;;;;;;;;;5050809;28;20492;-68
2020/12/01 14:51:48;;;;;;;64.40;25.80;;;;;;;;;;5072937;28;20449;-66
2020/12/01 14:54:16;;;;;;;71.18;25.80;;;;;;;;;;5061911;28;20031;-66
2020/12/01 14:56:51;;;;;;;61.60;24.77;;;;;;;;;;5060943;28;20470;-67
2020/12/01 14:59:17;;;;;;;66.28;26.67;;;;;;;;;;5061021;28;20059;-68
2020/12/01 15:02:02;;;;;;;62.45;26.40;;;;;;;;;;5060572;28;20469;-66
2020/12/01 15:04:37;;;;;;;66.97;27.42;;;;;;;;;;5061504;28;20017;-65
2020/12/01 15:07:12;;;;;;;66.63;26.13;;;;;;;;;;5056709;28;20449;-65
2020/12/01 15:09:44;;;;;;;66.75;27.27;;;;;;;;;;5060085;28;20057;-67
2020/12/01 15:12:11;;;;;;;59.47;24.45;;;;;;;;;;5057215;28;20027;-66
2020/12/01 15:14:36;;;;;;;63.10;26.15;;;;;;;;;;5057033;28;20018;-67
2020/12/01 15:17:03;;;;;;;60.70;24.88;;;;;;;;;;5060078;28;20016;-65
2020/12/01 15:19:29;;;;;;;65.15;25.90;;;;;;;;;;5065437;28;20086;-68
2020/12/01 15:21:58;;;;;;;66.18;25.25;;;;;;;;;;5046814;28;20409;-67
2020/12/01 15:24:26;;;;;;;63.28;25.13;;;;;;;;;;5057375;28;20124;-67
2020/12/01 15:26:51;;;;;;;56.63;26.15;;;;;;;;;;5059400;28;20025;-65
2020/12/01 15:29:17;;;;;;;68.88;26.35;;;;;;;;;;5069039;28;20085;-66
2020/12/01 15:31:42;;;;;;;64.97;24.85;;;;;;;;;;5075457;28;20031;-64
2020/12/01 15:34:08;;;;;;;57.88;23.38;;;;;;;;;;5073706;28;20028;-65
2020/12/01 15:36:36;;;;;;;52.70;24.17;;;;;;;;;;5067995;28;20154;-64
2020/12/01 15:39:02;;;;;;;62.90;26.05;;;;;;;;;;5034587;28;20049;-66
2020/12/01 15:41:28;;;;;;;60.17;22.90;;;;;;;;;;5054588;28;20021;-66
2020/12/01 15:43:54;;;;;;;67.22;25.92;;;;;;;;;;5055343;28;20397;-66
2020/12/01 15:46:23;;;;;;;62.50;25.10;;;;;;;;;;5055768;28;20376;-65
2020/12/01 15:48:49;;;;;;;44.03;17.45;;;;;;;;;;5054633;28;20486;-64
2020/12/01 15:51:23;;;;;;;61.35;25.17;;;;;;;;;;5054517;28;20091;-64
